Time;durP1;ratioP1;P1;durP2;ratioP2;P2;SDS_P1;SDS_P2;PMS_P1;PMS_P2;Temp;Humidity;BMP_temperature;BMP_pressure;BME280_temperature;BME280_humidity;BME280_pressure;Samples;Min_cycle;Max_cycle;Signal;HPM_P1;HPM_P2
2022/09/12 00:01:19;;;;;;;4.13;3.73;;;;;;;;;;5092664;28;20935;-72
2022/09/12 00:03:48;;;;;;;10.37;4.53;;;;;;;;;;5092287;28;20656;-72
2022/09/12 00:06:18;;;;;;;4.20;3.80;;;;;;;;;;5091999;28;20469;-72
2022/09/12 00:08:45;;;;;;;7.03;4.90;;;;;;;;;;5092611;28;20471;-72
2022/09/12 00:11:13;;;;;;;6.20;4.43;;;;;;;;;;5092736;28;20494;-72
2022/09/12 00:13:42;;;;;;;6.80;4.90;;;;;;;;;;5092415;28;20481;-72
2022/09/12 00:16:15;;;;;;;9.07;4.97;;;;;;;;;;5092581;28;20454;-72
2022/09/12 00:18:43;;;;;;;6.00;4.60;;;;;;;;;;5092471;28;20446;-72
2022/09/12 00:21:12;;;;;;;5.10;4.60;;;;;;;;;;5092508;28;20453;-72
2022/09/12 00:23:39;;;;;;;4.80;4.40;;;;;;;;;;5092256;28;21013;-73
2022/09/12 00:26:07;;;;;;;7.10;4.80;;;;;;;;;;5092825;28;20954;-72
2022/09/12 00:28:34;;;;;;;6.40;4.73;;;;;;;;;;5096585;28;20454;-73
2022/09/12 00:31:04;;;;;;;4.83;4.30;;;;;;;;;;5096631;28;20485;-73
2022/09/12 00:33:31;;;;;;;6.80;5.20;;;;;;;;;;5096514;28;20461;-73
2022/09/12 00:35:58;;;;;;;5.70;4.80;;;;;;;;;;5096415;28;20455;-73
2022/09/12 00:38:27;;;;;;;6.40;5.40;;;;;;;;;;5096381;28;20442;-73
2022/09/12 00:40:54;;;;;;;7.50;6.00;;;;;;;;;;5096550;28;20465;-72
2022/09/12 00:43:35;;;;;;;7.23;6.50;;;;;;;;;;5096114;28;20454;-72
2022/09/12 00:46:03;;;;;;;6.23;5.60;;;;;;;;;;5096526;28;20549;-72
2022/09/12 00:48:32;;;;;;;7.53;5.40;;;;;;;;;;5096454;28;20833;-72
2022/09/12 00:51:00;;;;;;;10.70;5.60;;;;;;;;;;5096301;28;20492;-72
2022/09/12 00:53:28;;;;;;;6.93;5.90;;;;;;;;;;5096010;28;20469;-73
2022/09/12 00:55:56;;;;;;;6.43;5.67;;;;;;;;;;5096212;28;20462;-73
2022/09/12 00:58:25;;;;;;;6.27;5.67;;;;;;;;;;5096222;28;20458;-73
2022/09/12 01:00:52;;;;;;;8.70;4.57;;;;;;;;;;5096045;28;20453;-73
2022/09/12 01:03:21;;;;;;;7.93;6.50;;;;;;;;;;5095776;28;20450;-73
2022/09/12 01:05:52;;;;;;;10.50;7.73;;;;;;;;;;5095867;28;20450;-73
2022/09/12 01:08:21;;;;;;;6.90;6.20;;;;;;;;;;5095297;28;20438;-73
2022/09/12 01:10:49;;;;;;;5.63;4.97;;;;;;;;;;5095709;28;20464;-73
2022/09/12 01:13:17;;;;;;;6.47;4.20;;;;;;;;;;5095978;28;20962;-73
2022/09/12 01:15:44;;;;;;;6.00;5.40;;;;;;;;;;5095497;28;20450;-73
2022/09/12 01:18:18;;;;;;;5.07;4.57;;;;;;;;;;5095754;28;20501;-73
2022/09/12 01:20:56;;;;;;;5.00;4.50;;;;;;;;;;5096033;28;20438;-73
2022/09/12 01:23:44;;;;;;;15.00;10.23;;;;;;;;;;5095518;28;20545;-73
2022/09/12 01:26:24;;;;;;;7.70;5.23;;;;;;;;;;5070227;28;20911;-73
2022/09/12 01:29:04;;;;;;;5.97;4.77;;;;;;;;;;5096008;28;20430;-73
2022/09/12 01:31:34;;;;;;;5.70;5.20;;;;;;;;;;5095322;28;20485;-73
2022/09/12 01:34:06;;;;;;;6.30;5.60;;;;;;;;;;5095237;28;20853;-73
2022/09/12 01:36:35;;;;;;;5.80;4.50;;;;;;;;;;5095328;28;20936;-73
2022/09/12 01:39:04;;;;;;;5.90;4.80;;;;;;;;;;5095052;28;20455;-73
2022/09/12 01:41:37;;;;;;;6.07;5.13;;;;;;;;;;5095307;28;20458;-73
2022/09/12 01:44:10;;;;;;;8.00;4.50;;;;;;;;;;5094949;28;20479;-73
2022/09/12 01:46:44;;;;;;;7.23;5.80;;;;;;;;;;5095235;28;20454;-71
2022/09/12 01:49:16;;;;;;;6.93;6.20;;;;;;;;;;5095109;28;20542;-71
2022/09/12 01:51:45;;;;;;;7.20;5.20;;;;;;;;;;5095139;28;21011;-72
2022/09/12 01:54:14;;;;;;;7.37;4.80;;;;;;;;;;5094740;28;20481;-72
2022/09/12 01:56:42;;;;;;;5.77;5.20;;;;;;;;;;5094784;28;20826;-71
2022/09/12 01:59:11;;;;;;;6.63;5.70;;;;;;;;;;5094834;28;20457;-71
2022/09/12 02:01:44;;;;;;;5.33;4.83;;;;;;;;;;5094849;28;20465;-71
2022/09/12 02:04:13;;;;;;;6.07;5.33;;;;;;;;;;5094741;28;20569;-71
2022/09/12 02:06:43;;;;;;;7.50;5.27;;;;;;;;;;5094332;28;20451;-72
2022/09/12 02:09:13;;;;;;;4.73;4.30;;;;;;;;;;5094790;28;20461;-72
2022/09/12 02:11:43;;;;;;;10.27;7.00;;;;;;;;;;5094597;28;20494;-72
2022/09/12 02:14:11;;;;;;;12.03;6.80;;;;;;;;;;5094649;28;20474;-73
2022/09/12 02:16:41;;;;;;;8.13;5.73;;;;;;;;;;5094655;28;20816;-73
2022/09/12 02:19:11;;;;;;;6.93;6.23;;;;;;;;;;5094660;28;20812;-73
2022/09/12 02:21:40;;;;;;;6.33;5.40;;;;;;;;;;5094368;28;20450;-73
2022/09/12 02:24:09;;;;;;;7.67;6.43;;;;;;;;;;5094346;28;20479;-72
2022/09/12 02:26:38;;;;;;;6.83;5.47;;;;;;;;;;5094239;28;20447;-72
2022/09/12 02:29:05;;;;;;;6.73;5.73;;;;;;;;;;5094592;28;20546;-72
2022/09/12 02:31:35;;;;;;;7.43;6.10;;;;;;;;;;5094255;28;20487;-72
2022/09/12 02:34:10;;;;;;;9.63;7.53;;;;;;;;;;5093973;28;20988;-71
2022/09/12 02:36:43;;;;;;;9.03;6.87;;;;;;;;;;5094356;28;20986;-70
2022/09/12 02:39:10;;;;;;;6.70;5.53;;;;;;;;;;5094244;28;20446;-70
2022/09/12 02:41:38;;;;;;;5.60;4.90;;;;;;;;;;5094004;28;20844;-70
2022/09/12 02:44:06;;;;;;;5.30;4.80;;;;;;;;;;5093828;28;20482;-70
2022/09/12 02:46:37;;;;;;;7.80;6.57;;;;;;;;;;5093777;28;20463;-70
2022/09/12 02:49:04;;;;;;;5.27;4.60;;;;;;;;;;5093956;28;20940;-72
2022/09/12 02:51:32;;;;;;;6.03;4.93;;;;;;;;;;5093348;28;20478;-72
2022/09/12 02:54:00;;;;;;;5.73;4.53;;;;;;;;;;5093543;28;20486;-72
2022/09/12 02:56:28;;;;;;;7.97;5.63;;;;;;;;;;5094007;28;20960;-73
2022/09/12 02:58:58;;;;;;;6.17;4.57;;;;;;;;;;5093637;28;20454;-72
2022/09/12 03:01:29;;;;;;;15.23;8.70;;;;;;;;;;5093514;28;20474;-72
2022/09/12 03:04:11;;;;;;;11.77;7.43;;;;;;;;;;5093462;28;20471;-73
2022/09/12 03:06:46;;;;;;;7.70;5.50;;;;;;;;;;5090961;28;20466;-71
2022/09/12 03:09:14;;;;;;;8.90;5.23;;;;;;;;;;5093434;28;20791;-73
2022/09/12 03:11:51;;;;;;;6.87;5.80;;;;;;;;;;5093339;28;20490;-73
2022/09/12 03:14:23;;;;;;;7.50;5.87;;;;;;;;;;5093145;28;20483;-71
2022/09/12 03:16:54;;;;;;;8.70;6.40;;;;;;;;;;5093513;28;20920;-71
2022/09/12 03:19:24;;;;;;;7.97;6.33;;;;;;;;;;5093455;28;20446;-71
2022/09/12 03:21:58;;;;;;;9.40;7.03;;;;;;;;;;5093141;28;20446;-71
2022/09/12 03:24:30;;;;;;;7.80;5.93;;;;;;;;;;5093378;28;20469;-71
2022/09/12 03:27:01;;;;;;;11.07;8.30;;;;;;;;;;5093197;28;20971;-71
2022/09/12 03:29:28;;;;;;;9.73;7.17;;;;;;;;;;5093142;28;20451;-71
2022/09/12 03:31:56;;;;;;;7.70;5.77;;;;;;;;;;5092945;28;20482;-71
2022/09/12 03:34:24;;;;;;;9.73;5.40;;;;;;;;;;5092916;28;20507;-71
2022/09/12 03:36:54;;;;;;;8.93;6.00;;;;;;;;;;5093462;28;20449;-71
2022/09/12 03:39:23;;;;;;;5.70;5.10;;;;;;;;;;5092804;28;20830;-71
2022/09/12 03:41:50;;;;;;;9.23;6.60;;;;;;;;;;5092788;28;20459;-71
2022/09/12 03:44:17;;;;;;;5.67;5.07;;;;;;;;;;5092811;28;21006;-71
2022/09/12 03:46:44;;;;;;;7.30;6.23;;;;;;;;;;5093385;28;20457;-71
2022/09/12 03:49:12;;;;;;;7.67;6.73;;;;;;;;;;5093099;28;20955;-71
2022/09/12 03:51:39;;;;;;;7.40;6.07;;;;;;;;;;5093117;28;20459;-71
2022/09/12 03:54:06;;;;;;;8.33;5.60;;;;;;;;;;5092874;28;20794;-71
2022/09/12 03:56:35;;;;;;;7.37;6.50;;;;;;;;;;5093051;28;20947;-71
2022/09/12 03:59:05;;;;;;;10.93;7.13;;;;;;;;;;5092726;28;20461;-71
2022/09/12 04:01:32;;;;;;;10.57;5.90;;;;;;;;;;5091734;28;20451;-70
2022/09/12 04:03:59;;;;;;;8.33;6.73;;;;;;;;;;5092666;28;20475;-72
2022/09/12 04:06:27;;;;;;;8.90;6.10;;;;;;;;;;5092187;28;20458;-71
2022/09/12 04:08:54;;;;;;;6.50;5.80;;;;;;;;;;5092540;28;20824;-70
2022/09/12 04:11:22;;;;;;;8.33;6.13;;;;;;;;;;5092472;28;20450;-70
2022/09/12 04:13:51;;;;;;;8.83;5.23;;;;;;;;;;5092133;28;20491;-70
2022/09/12 04:16:19;;;;;;;6.50;5.80;;;;;;;;;;5092356;28;20461;-70
2022/09/12 04:18:46;;;;;;;9.27;6.53;;;;;;;;;;5092420;28;20450;-70
2022/09/12 04:21:14;;;;;;;7.77;6.13;;;;;;;;;;5092473;28;20957;-71
2022/09/12 04:23:42;;;;;;;7.43;5.67;;;;;;;;;;5092396;28;20955;-71
2022/09/12 04:26:09;;;;;;;7.13;6.30;;;;;;;;;;5092258;28;20478;-71
2022/09/12 04:28:37;;;;;;;8.10;6.33;;;;;;;;;;5092155;28;20469;-71
2022/09/12 04:31:07;;;;;;;11.97;6.83;;;;;;;;;;5092515;28;20980;-71
2022/09/12 04:33:35;;;;;;;6.97;6.27;;;;;;;;;;5091826;28;20494;-71
2022/09/12 04:36:05;;;;;;;7.60;5.93;;;;;;;;;;5092498;28;20465;-71
2022/09/12 04:38:33;;;;;;;11.30;7.03;;;;;;;;;;5092115;28;20936;-71
2022/09/12 04:41:00;;;;;;;8.97;6.07;;;;;;;;;;5092305;28;20952;-70
2022/09/12 04:43:27;;;;;;;10.00;6.17;;;;;;;;;;5092093;28;20458;-71
2022/09/12 04:45:54;;;;;;;10.63;6.80;;;;;;;;;;5092586;28;20447;-71
2022/09/12 04:48:23;;;;;;;11.00;6.97;;;;;;;;;;5092121;28;20461;-71
2022/09/12 04:50:50;;;;;;;9.60;7.20;;;;;;;;;;5092364;28;20833;-71
2022/09/12 04:53:17;;;;;;;11.43;7.43;;;;;;;;;;5091965;28;20494;-71
2022/09/12 04:55:44;;;;;;;8.07;6.07;;;;;;;;;;5091863;28;20913;-70
2022/09/12 04:58:12;;;;;;;8.13;6.00;;;;;;;;;;5092284;28;20447;-70
2022/09/12 05:00:39;;;;;;;8.47;7.17;;;;;;;;;;5092094;28;20963;-70
2022/09/12 05:03:07;;;;;;;9.03;5.70;;;;;;;;;;5092143;28;20451;-70
2022/09/12 05:05:36;;;;;;;7.50;6.00;;;;;;;;;;5091719;28;20825;-71
2022/09/12 05:08:03;;;;;;;7.77;6.30;;;;;;;;;;5091657;28;20474;-70
2022/09/12 05:10:31;;;;;;;7.97;6.70;;;;;;;;;;5091870;28;20460;-70
2022/09/12 05:12:58;;;;;;;8.47;6.20;;;;;;;;;;5092948;28;20508;-70
2022/09/12 05:15:25;;;;;;;6.37;5.70;;;;;;;;;;5095457;28;20466;-70
2022/09/12 05:17:52;;;;;;;8.60;5.90;;;;;;;;;;5095871;28;20931;-70
2022/09/12 05:20:19;;;;;;;10.00;7.37;;;;;;;;;;5095662;28;20458;-70
2022/09/12 05:22:47;;;;;;;7.80;6.17;;;;;;;;;;5095458;28;20448;-70
2022/09/12 05:25:15;;;;;;;7.87;6.13;;;;;;;;;;5095499;28;20481;-70
2022/09/12 05:27:42;;;;;;;9.10;7.10;;;;;;;;;;5095336;28;20446;-70
2022/09/12 05:30:10;;;;;;;9.87;6.60;;;;;;;;;;5095476;28;20928;-70
2022/09/12 05:32:37;;;;;;;7.40;5.90;;;;;;;;;;5094828;28;20580;-70
2022/09/12 05:35:04;;;;;;;5.87;5.30;;;;;;;;;;5094206;28;20470;-70
2022/09/12 05:37:32;;;;;;;5.50;4.43;;;;;;;;;;5094628;28;20442;-70
2022/09/12 05:40:03;;;;;;;7.70;5.50;;;;;;;;;;5095343;28;20533;-71
2022/09/12 05:42:31;;;;;;;5.03;4.27;;;;;;;;;;5094982;28;20481;-71
2022/09/12 05:44:58;;;;;;;6.80;3.60;;;;;;;;;;5094786;28;20505;-70
2022/09/12 05:47:25;;;;;;;5.27;3.90;;;;;;;;;;5094888;28;20458;-70
2022/09/12 05:49:52;;;;;;;4.17;3.77;;;;;;;;;;5095031;28;20822;-70
2022/09/12 05:52:20;;;;;;;4.53;4.10;;;;;;;;;;5094944;28;21009;-70
2022/09/12 05:54:48;;;;;;;4.17;3.77;;;;;;;;;;5094475;28;20467;-70
2022/09/12 05:57:17;;;;;;;5.47;4.10;;;;;;;;;;5094770;28;20462;-70
2022/09/12 05:59:44;;;;;;;8.10;3.67;;;;;;;;;;5094612;28;20455;-70
2022/09/12 06:02:11;;;;;;;4.83;3.63;;;;;;;;;;5094576;28;20507;-73
2022/09/12 06:04:40;;;;;;;5.53;3.70;;;;;;;;;;5094246;28;20536;-70
2022/09/12 06:07:07;;;;;;;4.97;2.80;;;;;;;;;;5094512;28;20477;-72
2022/09/12 06:09:35;;;;;;;4.13;2.40;;;;;;;;;;5094306;28;20446;-72
2022/09/12 06:12:02;;;;;;;2.70;2.50;;;;;;;;;;5094799;28;20940;-73
2022/09/12 06:14:31;;;;;;;3.33;2.13;;;;;;;;;;5094174;28;20490;-73
2022/09/12 06:16:58;;;;;;;2.60;2.40;;;;;;;;;;5094309;28;20459;-73
2022/09/12 06:19:26;;;;;;;3.70;2.23;;;;;;;;;;5094367;28;20469;-73
2022/09/12 06:21:54;;;;;;;2.77;2.10;;;;;;;;;;5094470;28;20496;-73
2022/09/12 06:24:22;;;;;;;2.23;1.97;;;;;;;;;;5092998;28;21039;-73
2022/09/12 06:26:51;;;;;;;1.83;1.63;;;;;;;;;;5094446;28;20443;-73
2022/09/12 06:29:18;;;;;;;2.10;1.90;;;;;;;;;;5094202;28;20461;-73
2022/09/12 06:31:47;;;;;;;3.23;1.90;;;;;;;;;;5094401;28;20447;-73
2022/09/12 06:34:15;;;;;;;3.23;1.93;;;;;;;;;;5093609;28;20926;-73
2022/09/12 06:36:43;;;;;;;1.93;1.73;;;;;;;;;;5094059;28;20446;-73
2022/09/12 06:39:11;;;;;;;4.00;1.87;;;;;;;;;;5094104;28;20458;-73
2022/09/12 06:41:38;;;;;;;2.57;1.73;;;;;;;;;;5093675;28;20465;-73
2022/09/12 06:44:06;;;;;;;2.10;1.90;;;;;;;;;;5093596;28;20579;-73
2022/09/12 06:46:34;;;;;;;2.97;1.67;;;;;;;;;;5093789;28;20952;-73
2022/09/12 06:49:02;;;;;;;1.57;1.33;;;;;;;;;;5093772;28;20469;-73
2022/09/12 06:51:29;;;;;;;2.17;1.73;;;;;;;;;;5093647;28;20447;-73
2022/09/12 06:53:57;;;;;;;1.63;1.43;;;;;;;;;;5093787;28;20497;-73
2022/09/12 06:56:25;;;;;;;2.57;1.30;;;;;;;;;;5093495;28;20524;-73
2022/09/12 06:58:53;;;;;;;2.43;1.50;;;;;;;;;;5090569;28;20462;-73
2022/09/12 07:01:21;;;;;;;1.67;1.17;;;;;;;;;;5091579;28;20513;-73
2022/09/12 07:03:49;;;;;;;2.77;1.23;;;;;;;;;;5091953;28;20470;-73
2022/09/12 07:06:18;;;;;;;2.90;1.53;;;;;;;;;;5091746;28;20477;-73
2022/09/12 07:08:46;;;;;;;2.10;1.40;;;;;;;;;;5092087;28;20455;-73
2022/09/12 07:11:14;;;;;;;1.73;1.50;;;;;;;;;;5091472;28;20470;-74
2022/09/12 07:13:42;;;;;;;2.40;1.47;;;;;;;;;;5091449;28;20494;-73
2022/09/12 07:16:10;;;;;;;1.67;1.50;;;;;;;;;;5091909;28;20443;-73
2022/09/12 07:18:37;;;;;;;2.07;1.40;;;;;;;;;;5093119;28;20450;-73
2022/09/12 07:21:05;;;;;;;3.70;1.60;;;;;;;;;;5093167;28;20450;-74
2022/09/12 07:23:34;;;;;;;2.40;1.43;;;;;;;;;;5092947;28;20447;-73
2022/09/12 07:26:01;;;;;;;1.73;1.60;;;;;;;;;;5093400;28;20812;-74
2022/09/12 07:28:30;;;;;;;13.83;3.37;;;;;;;;;;5093176;28;21037;-74
2022/09/12 07:30:57;;;;;;;2.00;1.70;;;;;;;;;;5092986;28;20855;-73
2022/09/12 07:33:25;;;;;;;1.60;1.37;;;;;;;;;;5092926;28;20483;-74
2022/09/12 07:35:53;;;;;;;1.90;1.30;;;;;;;;;;5092860;28;20827;-74
2022/09/12 07:38:20;;;;;;;2.13;1.50;;;;;;;;;;5093018;28;20508;-73
2022/09/12 07:40:49;;;;;;;6.30;1.80;;;;;;;;;;5092899;28;20450;-73
2022/09/12 07:43:16;;;;;;;1.70;1.33;;;;;;;;;;5093200;28;20859;-73
2022/09/12 07:45:43;;;;;;;2.13;1.53;;;;;;;;;;5092598;28;20471;-73
2022/09/12 07:48:10;;;;;;;3.03;1.60;;;;;;;;;;5092805;28;20975;-73
2022/09/12 07:50:37;;;;;;;1.97;1.77;;;;;;;;;;5092709;28;20461;-73
2022/09/12 07:53:05;;;;;;;2.17;1.90;;;;;;;;;;5092851;28;20518;-73
2022/09/12 07:55:32;;;;;;;3.93;1.77;;;;;;;;;;5092451;28;20815;-73
2022/09/12 07:58:01;;;;;;;2.53;1.80;;;;;;;;;;5092729;28;20473;-73
2022/09/12 08:00:34;;;;;;;4.80;3.70;;;;;;;;;;5092552;28;20464;-73
2022/09/12 08:03:03;;;;;;;2.03;1.80;;;;;;;;;;5092818;28;20453;-73
2022/09/12 08:05:30;;;;;;;1.97;1.70;;;;;;;;;;5092304;28;20548;-73
2022/09/12 08:07:57;;;;;;;9.53;2.30;;;;;;;;;;5091988;28;20449;-73
2022/09/12 08:10:24;;;;;;;2.40;2.20;;;;;;;;;;5092522;28;20504;-73
2022/09/12 08:12:51;;;;;;;1.87;1.70;;;;;;;;;;5092608;28;20816;-73
2022/09/12 08:15:20;;;;;;;4.07;2.10;;;;;;;;;;5092368;28;20475;-73
2022/09/12 08:17:47;;;;;;;3.00;2.70;;;;;;;;;;5092354;28;20462;-73
2022/09/12 08:20:14;;;;;;;3.53;1.80;;;;;;;;;;5092580;28;20936;-73
2022/09/12 08:22:42;;;;;;;2.13;1.93;;;;;;;;;;5092527;28;20446;-73
2022/09/12 08:25:09;;;;;;;2.77;1.90;;;;;;;;;;5092177;28;20921;-73
2022/09/12 08:27:37;;;;;;;2.90;2.30;;;;;;;;;;5092339;28;20460;-74
2022/09/12 08:30:05;;;;;;;2.30;2.10;;;;;;;;;;5092247;28;20545;-73
2022/09/12 08:32:34;;;;;;;2.20;2.00;;;;;;;;;;5092420;28;20538;-73
2022/09/12 08:35:02;;;;;;;3.20;2.90;;;;;;;;;;5092043;28;20494;-73
2022/09/12 08:37:30;;;;;;;3.80;2.93;;;;;;;;;;5092306;28;20453;-73
2022/09/12 08:39:57;;;;;;;3.60;2.63;;;;;;;;;;5092495;28;20455;-73
2022/09/12 08:42:28;;;;;;;2.73;2.47;;;;;;;;;;5092170;28;20483;-73
2022/09/12 08:45:09;;;;;;;2.87;2.60;;;;;;;;;;5092200;28;20998;-73
2022/09/12 08:47:39;;;;;;;2.37;2.17;;;;;;;;;;5092618;28;20533;-73
2022/09/12 08:50:13;;;;;;;3.00;2.80;;;;;;;;;;5096300;28;20458;-73
2022/09/12 08:52:44;;;;;;;3.00;2.70;;;;;;;;;;5096460;28;20465;-73
2022/09/12 08:55:20;;;;;;;2.43;2.23;;;;;;;;;;5095774;28;20873;-73
2022/09/12 08:57:48;;;;;;;3.00;2.70;;;;;;;;;;5096231;28;20464;-73
2022/09/12 09:00:17;;;;;;;3.30;2.93;;;;;;;;;;5096043;28;20832;-73
2022/09/12 09:02:55;;;;;;;2.87;2.63;;;;;;;;;;5096077;28;20459;-73
2022/09/12 09:05:25;;;;;;;4.30;3.73;;;;;;;;;;5095728;28;20470;-73
2022/09/12 09:08:06;;;;;;;8.13;3.70;;;;;;;;;;5095578;28;20451;-73
2022/09/12 09:10:37;;;;;;;4.13;3.37;;;;;;;;;;5095922;28;20458;-73
2022/09/12 09:13:07;;;;;;;4.27;3.30;;;;;;;;;;5095991;28;20466;-73
2022/09/12 09:15:40;;;;;;;4.00;3.60;;;;;;;;;;5095687;28;20994;-73
2022/09/12 09:18:12;;;;;;;5.10;3.90;;;;;;;;;;5095847;28;20465;-73
2022/09/12 09:20:42;;;;;;;4.70;3.07;;;;;;;;;;5095676;28;20462;-73
2022/09/12 09:23:14;;;;;;;3.27;2.97;;;;;;;;;;5095554;28;20499;-73
2022/09/12 09:25:44;;;;;;;6.40;3.63;;;;;;;;;;5095395;28;20528;-73
2022/09/12 09:28:16;;;;;;;4.37;3.97;;;;;;;;;;5095560;28;20537;-73
2022/09/12 09:30:44;;;;;;;8.87;3.67;;;;;;;;;;5095635;28;20955;-73
2022/09/12 09:33:18;;;;;;;7.60;3.73;;;;;;;;;;5095789;28;20881;-73
2022/09/12 09:35:47;;;;;;;3.70;2.50;;;;;;;;;;5095202;28;20447;-73
2022/09/12 09:38:21;;;;;;;4.63;3.10;;;;;;;;;;5095328;28;20462;-73
2022/09/12 09:40:53;;;;;;;3.50;3.10;;;;;;;;;;5095429;28;20450;-73
2022/09/12 09:43:22;;;;;;;5.03;2.30;;;;;;;;;;5095119;28;20451;-73
2022/09/12 09:45:49;;;;;;;2.30;2.00;;;;;;;;;;5095245;28;20450;-73
2022/09/12 09:48:19;;;;;;;3.73;2.53;;;;;;;;;;5095416;28;20450;-73
2022/09/12 09:50:47;;;;;;;2.73;2.53;;;;;;;;;;5095582;28;20458;-73
2022/09/12 09:53:23;;;;;;;3.00;2.70;;;;;;;;;;5095322;28;20952;-75
2022/09/12 09:55:50;;;;;;;3.03;2.73;;;;;;;;;;5094832;28;20451;-72
2022/09/12 09:58:28;;;;;;;3.50;2.67;;;;;;;;;;5095240;28;20451;-72
2022/09/12 10:00:59;;;;;;;2.53;2.10;;;;;;;;;;5094293;28;20912;-72
2022/09/12 10:03:30;;;;;;;3.87;2.00;;;;;;;;;;5094705;28;20462;-72
2022/09/12 10:05:59;;;;;;;2.93;2.63;;;;;;;;;;5094744;28;20962;-72
2022/09/12 10:08:27;;;;;;;2.77;2.50;;;;;;;;;;5094081;28;20511;-72
2022/09/12 10:10:55;;;;;;;2.50;2.27;;;;;;;;;;5094883;28;20443;-72
2022/09/12 10:13:24;;;;;;;2.30;2.10;;;;;;;;;;5094493;28;20455;-72
2022/09/12 10:15:59;;;;;;;2.43;2.20;;;;;;;;;;5094536;28;20455;-72
2022/09/12 10:18:35;;;;;;;2.43;2.23;;;;;;;;;;5094497;28;20453;-72
2022/09/12 10:21:03;;;;;;;3.80;2.70;;;;;;;;;;5094859;28;20450;-72
2022/09/12 10:23:33;;;;;;;2.37;2.17;;;;;;;;;;5094316;28;21002;-72
2022/09/12 10:26:02;;;;;;;2.30;2.10;;;;;;;;;;5094592;28;20447;-72
2022/09/12 10:28:33;;;;;;;2.77;2.10;;;;;;;;;;5094543;28;20454;-72
2022/09/12 10:31:01;;;;;;;2.60;2.40;;;;;;;;;;5094602;28;20461;-71
2022/09/12 10:33:28;;;;;;;7.50;2.30;;;;;;;;;;5094446;28;20557;-72
2022/09/12 10:35:57;;;;;;;2.63;2.43;;;;;;;;;;5094264;28;20482;-72
2022/09/12 10:38:25;;;;;;;3.20;2.30;;;;;;;;;;5094136;28;20462;-72
2022/09/12 10:40:58;;;;;;;3.30;2.10;;;;;;;;;;5094125;28;20474;-72
2022/09/12 10:43:27;;;;;;;2.33;2.13;;;;;;;;;;5093851;28;21091;-72
2022/09/12 10:45:57;;;;;;;2.17;1.93;;;;;;;;;;5094188;28;20469;-72
2022/09/12 10:48:28;;;;;;;2.30;2.10;;;;;;;;;;5094017;28;20451;-72
2022/09/12 10:50:55;;;;;;;2.37;2.03;;;;;;;;;;5094357;28;20500;-72
2022/09/12 10:53:24;;;;;;;3.77;2.40;;;;;;;;;;5093783;28;20952;-71
2022/09/12 10:55:59;;;;;;;3.63;2.30;;;;;;;;;;5093800;28;20876;-72
2022/09/12 10:58:35;;;;;;;3.13;2.83;;;;;;;;;;5093798;28;20458;-71
2022/09/12 11:01:05;;;;;;;3.10;2.80;;;;;;;;;;5093943;28;20473;-71
2022/09/12 11:03:39;;;;;;;2.90;2.70;;;;;;;;;;5093469;28;20455;-71
2022/09/12 11:06:07;;;;;;;2.50;2.30;;;;;;;;;;5093969;28;20918;-71
2022/09/12 11:08:41;;;;;;;2.53;2.20;;;;;;;;;;5093488;28;20446;-71
2022/09/12 11:11:12;;;;;;;3.27;2.47;;;;;;;;;;5093248;28;20451;-72
2022/09/12 11:13:51;;;;;;;3.77;2.90;;;;;;;;;;5093387;28;20475;-72
2022/09/12 11:16:23;;;;;;;3.00;2.57;;;;;;;;;;5093416;28;20446;-72
2022/09/12 11:19:05;;;;;;;2.63;2.43;;;;;;;;;;5093802;28;20447;-71
2022/09/12 11:21:39;;;;;;;2.50;2.30;;;;;;;;;;5091280;28;20466;-72
2022/09/12 11:24:17;;;;;;;3.20;2.67;;;;;;;;;;5093303;28;20481;-72
2022/09/12 11:26:51;;;;;;;3.97;3.13;;;;;;;;;;5093390;28;20892;-71
2022/09/12 11:29:23;;;;;;;3.63;2.83;;;;;;;;;;5093166;28;20450;-72
2022/09/12 11:31:57;;;;;;;3.63;3.33;;;;;;;;;;5093480;28;20459;-72
2022/09/12 11:34:29;;;;;;;2.60;2.40;;;;;;;;;;5092880;28;20982;-72
2022/09/12 11:37:04;;;;;;;3.27;2.90;;;;;;;;;;5093500;28;20455;-72
2022/09/12 11:39:35;;;;;;;3.20;2.97;;;;;;;;;;5093012;28;20465;-72
2022/09/12 11:42:04;;;;;;;2.83;2.63;;;;;;;;;;5093218;28;20459;-72
2022/09/12 11:44:36;;;;;;;3.17;2.87;;;;;;;;;;5092628;28;20565;-72
2022/09/12 11:47:05;;;;;;;3.37;3.17;;;;;;;;;;5093033;28;20450;-74
2022/09/12 11:49:35;;;;;;;2.50;2.30;;;;;;;;;;5092919;28;20481;-72
2022/09/12 11:52:04;;;;;;;2.70;2.50;;;;;;;;;;5093179;28;20461;-72
2022/09/12 11:54:34;;;;;;;3.53;2.27;;;;;;;;;;5092583;28;20496;-72
2022/09/12 11:57:04;;;;;;;3.00;2.30;;;;;;;;;;5093149;28;20823;-72
2022/09/12 11:59:34;;;;;;;4.70;3.00;;;;;;;;;;5092798;28;20764;-72
2022/09/12 12:02:02;;;;;;;3.27;2.73;;;;;;;;;;5092817;28;20474;-72
2022/09/12 12:04:33;;;;;;;5.60;2.77;;;;;;;;;;5092281;28;20470;-72
2022/09/12 12:07:04;;;;;;;4.70;2.80;;;;;;;;;;5092524;28;20450;-72
2022/09/12 12:09:33;;;;;;;3.80;3.50;;;;;;;;;;5092854;28;20461;-72
2022/09/12 12:12:01;;;;;;;4.53;4.10;;;;;;;;;;5089083;28;20549;-71
2022/09/12 12:14:32;;;;;;;3.73;3.30;;;;;;;;;;5091673;28;20561;-71
2022/09/12 12:16:59;;;;;;;3.47;3.00;;;;;;;;;;5091681;28;20454;-72
2022/09/12 12:19:33;;;;;;;2.67;2.47;;;;;;;;;;5092307;28;20944;-72
2022/09/12 12:22:06;;;;;;;3.03;2.83;;;;;;;;;;5091546;28;20457;-72
2022/09/12 12:24:36;;;;;;;2.80;2.60;;;;;;;;;;5090554;28;20463;-72
2022/09/12 12:27:04;;;;;;;2.70;2.50;;;;;;;;;;5092455;28;20996;-72
2022/09/12 12:29:39;;;;;;;2.97;2.77;;;;;;;;;;5092413;28;20457;-72
2022/09/12 12:32:27;;;;;;;3.00;2.70;;;;;;;;;;5092492;28;20601;-72
2022/09/12 12:35:13;;;;;;;3.13;2.40;;;;;;;;;;5092107;28;20770;-72
2022/09/12 12:37:51;;;;;;;3.10;2.57;;;;;;;;;;5092508;28;20546;-73
2022/09/12 12:40:23;;;;;;;3.67;2.93;;;;;;;;;;5092275;28;20446;-72
2022/09/12 12:43:02;;;;;;;4.17;2.47;;;;;;;;;;5092541;28;20469;-72
2022/09/12 12:45:47;;;;;;;2.77;2.57;;;;;;;;;;5091968;28;20470;-72
2022/09/12 12:48:16;;;;;;;2.97;2.60;;;;;;;;;;5092331;28;20774;-72
2022/09/12 12:50:43;;;;;;;2.77;2.57;;;;;;;;;;5091272;28;20959;-72
2022/09/12 12:53:17;;;;;;;2.93;2.67;;;;;;;;;;5092182;28;20458;-72
2022/09/12 12:55:49;;;;;;;3.30;2.43;;;;;;;;;;5092088;28;20547;-76
2022/09/12 12:58:27;;;;;;;3.70;3.30;;;;;;;;;;5092113;28;20470;-75
2022/09/12 13:01:03;;;;;;;3.23;3.00;;;;;;;;;;5092254;28;20454;-75
2022/09/12 13:03:32;;;;;;;3.50;3.00;;;;;;;;;;5091930;28;20454;-74
2022/09/12 13:06:02;;;;;;;3.83;2.57;;;;;;;;;;5092147;28;20454;-72
2022/09/12 13:08:31;;;;;;;3.73;2.80;;;;;;;;;;5092153;28;20560;-74
2022/09/12 13:11:01;;;;;;;2.93;2.63;;;;;;;;;;5092532;28;20947;-72
2022/09/12 13:13:32;;;;;;;3.80;2.60;;;;;;;;;;5091503;28;20451;-72
2022/09/12 13:15:59;;;;;;;3.07;2.87;;;;;;;;;;5091766;28;20500;-73
2022/09/12 13:18:27;;;;;;;4.00;3.20;;;;;;;;;;5092021;28;20809;-73
2022/09/12 13:21:00;;;;;;;2.77;2.53;;;;;;;;;;5092589;28;20935;-72
2022/09/12 13:23:28;;;;;;;3.73;2.80;;;;;;;;;;5091911;28;20800;-74
2022/09/12 13:25:56;;;;;;;2.87;2.60;;;;;;;;;;5091969;28;20974;-73
2022/09/12 13:28:25;;;;;;;4.07;2.57;;;;;;;;;;5092071;28;20936;-73
2022/09/12 13:30:58;;;;;;;3.33;3.03;;;;;;;;;;5092077;28;20932;-74
2022/09/12 13:33:28;;;;;;;6.47;2.40;;;;;;;;;;5091879;28;20835;-74
2022/09/12 13:36:16;;;;;;;2.47;2.27;;;;;;;;;;5095678;28;20490;-73
2022/09/12 13:38:49;;;;;;;4.70;3.13;;;;;;;;;;5069876;28;20490;-73
2022/09/12 13:41:22;;;;;;;3.73;3.20;;;;;;;;;;5095352;28;20458;-75
2022/09/12 13:43:51;;;;;;;4.10;3.50;;;;;;;;;;5095004;28;20477;-74
2022/09/12 13:46:19;;;;;;;4.00;2.83;;;;;;;;;;5095331;28;20443;-74
2022/09/12 13:48:47;;;;;;;4.00;3.30;;;;;;;;;;5095191;28;20469;-74
2022/09/12 13:51:21;;;;;;;6.40;2.80;;;;;;;;;;5095330;28;20447;-73
2022/09/12 13:53:49;;;;;;;3.13;2.80;;;;;;;;;;5094840;28;20468;-75
2022/09/12 13:56:17;;;;;;;3.07;2.77;;;;;;;;;;5095146;28;20490;-74
2022/09/12 13:58:54;;;;;;;3.03;2.60;;;;;;;;;;5095312;28;20867;-73
2022/09/12 14:01:21;;;;;;;3.97;3.43;;;;;;;;;;5085911;28;20451;-74
2022/09/12 14:06:48;;;;;;;3.57;3.20;;;;;;;;;;5083094;28;20469;-73
2022/09/12 14:09:16;;;;;;;9.67;7.17;;;;;;;;;;5086266;28;20446;-73
2022/09/12 14:11:43;;;;;;;2.70;2.50;;;;;;;;;;5083241;28;20942;-73
2022/09/12 14:14:28;;;;;;;10.20;3.30;;;;;;;;;;5084991;28;20838;-74
2022/09/12 14:16:55;;;;;;;3.83;3.43;;;;;;;;;;5095092;28;20490;-73
2022/09/12 14:19:24;;;;;;;3.20;2.90;;;;;;;;;;5094940;28;20455;-73
2022/09/12 14:21:53;;;;;;;2.67;2.47;;;;;;;;;;5094553;28;20493;-73
2022/09/12 14:24:23;;;;;;;4.67;2.93;;;;;;;;;;5094256;28;20898;-73
2022/09/12 14:26:51;;;;;;;3.97;2.70;;;;;;;;;;5094857;28;20530;-73
2022/09/12 14:29:20;;;;;;;5.53;3.37;;;;;;;;;;5094443;28;20948;-73
2022/09/12 14:31:47;;;;;;;3.80;3.10;;;;;;;;;;5094528;28;20450;-73
2022/09/12 14:34:15;;;;;;;7.33;3.60;;;;;;;;;;5094223;28;20466;-73
2022/09/12 14:36:45;;;;;;;4.70;4.23;;;;;;;;;;5094421;28;20996;-73
2022/09/12 14:39:23;;;;;;;3.10;2.70;;;;;;;;;;5094430;28;20438;-73
2022/09/12 14:41:50;;;;;;;3.40;3.10;;;;;;;;;;5094221;28;20458;-73
2022/09/12 14:44:21;;;;;;;3.63;3.33;;;;;;;;;;5094527;28;20471;-73
2022/09/12 14:46:49;;;;;;;6.30;3.30;;;;;;;;;;5093266;28;20459;-73
2022/09/12 14:49:17;;;;;;;3.63;2.70;;;;;;;;;;5094423;28;20458;-73
2022/09/12 14:51:48;;;;;;;4.20;3.80;;;;;;;;;;5094199;28;20981;-73
2022/09/12 14:54:36;;;;;;;3.07;2.83;;;;;;;;;;5093837;28;20474;-73
2022/09/12 14:57:03;;;;;;;3.30;3.00;;;;;;;;;;5094239;28;20490;-73
2022/09/12 14:59:37;;;;;;;4.47;3.97;;;;;;;;;;5094129;28;20450;-73
2022/09/12 15:02:22;;;;;;;3.50;3.20;;;;;;;;;;5094522;28;20440;-73